Time,TemperatureF,DewpointF,PressureIn,WindDirection,WindDirectionDegrees,WindSpeedMPH,WindSpeedGustMPH,Humidity,HourlyPrecipIn,Conditions,Clouds,dailyrainin,SolarRadiationWatts/m^2,SoftwareType,DateUTC
2013-09-06 16:48:00,91.1,59.6,30.02,ENE,73,0.0,0.0,35,0.01,RA,,0.01,494.0,WeatherDisplay:10.37,2013-09-06 21:48:00,
2013-09-06 16:53:00,91.0,60.3,30.01,East,84,1.0,3.0,36,0.01,RA,,0.01,475.0,WeatherDisplay:10.37,2013-09-06 21:53:00,
2013-09-06 16:58:00,90.7,58.5,30.01,NNW,341,1.0,4.0,34,0.00,OVC,,0.01,459.0,WeatherDisplay:10.37,2013-09-06 21:58:00,
2013-09-06 17:03:00,90.4,59.8,30.01,NNW,332,2.0,5.0,36,0.00,OVC,,0.01,367.0,WeatherDisplay:10.37,2013-09-06 22:03:00,
2013-09-06 17:08:00,90.2,59.6,30.01,South,178,1.0,4.0,36,0.00,OVC,,0.01,70.0,WeatherDisplay:10.37,2013-09-06 22:08:00,
2013-09-06 17:13:00,90.1,57.1,30.01,SSE,161,2.0,5.0,33,0.00,OVC,,0.01,63.0,WeatherDisplay:10.37,2013-09-06 22:13:00,
2013-09-06 17:18:00,89.8,59.3,30.01,South,190,1.0,4.0,36,0.00,OVC,,0.01,60.0,WeatherDisplay:10.37,2013-09-06 22:18:00,
2013-09-06 17:23:00,89.4,59.7,30.01,SSW,202,0.0,4.0,37,0.00,OVC,,0.01,58.0,WeatherDisplay:10.37,2013-09-06 22:23:00,
2013-09-06 17:28:00,89.3,58.1,30.01,SW,221,0.0,4.0,35,0.00,OVC,,0.01,69.0,WeatherDisplay:10.37,2013-09-06 22:28:00,
2013-09-06 17:33:00,89.4,58.9,30.01,WSW,241,0.0,1.0,36,0.00,OVC,,0.01,72.0,WeatherDisplay:10.37,2013-09-06 22:33:00,
2013-09-06 17:38:00,89.3,58.8,30.01,WSW,258,0.0,4.0,36,0.00,OVC,,0.01,105.0,WeatherDisplay:10.37,2013-09-06 22:38:00,
2013-09-06 17:43:00,89.2,59.5,30.01,West,268,0.0,3.0,37,0.00,OVC,,0.01,54.0,WeatherDisplay:10.37,2013-09-06 22:43:00,
2013-09-06 17:48:00,89.1,59.4,30.01,West,270,0.0,3.0,37,0.00,OVC,,0.01,53.0,WeatherDisplay:10.37,2013-09-06 22:48:00,
2013-09-06 17:53:00,88.9,61.5,30.00,West,270,0.0,1.0,40,0.00,OVC,,0.01,51.0,WeatherDisplay:10.37,2013-09-06 22:53:00,
2013-09-06 17:58:00,89.1,59.4,30.00,West,270,0.0,1.0,37,0.00,OVC,,0.01,49.0,WeatherDisplay:10.37,2013-09-06 22:58:00,
2013-09-06 18:03:00,89.1,57.9,30.00,West,270,0.0,3.0,35,0.00,CLR,,0.01,113.0,WeatherDisplay:10.37,2013-09-06 23:03:00,
2013-09-06 18:08:00,89.0,57.8,30.00,West,270,0.0,3.0,35,0.00,CLR,,0.01,62.0,WeatherDisplay:10.37,2013-09-06 23:08:00,
2013-09-06 18:13:00,88.6,60.5,30.00,West,270,0.0,1.0,39,0.00,CLR,,0.01,44.0,WeatherDisplay:10.37,2013-09-06 23:13:00,
2013-09-06 18:18:00,88.0,61.3,30.00,West,270,0.0,0.0,41,0.00,CLR,,0.01,44.0,WeatherDisplay:10.37,2013-09-06 23:18:00,
2013-09-06 18:23:00,87.5,62.9,30.00,West,270,0.0,0.0,44,0.00,CLR,,0.01,49.0,WeatherDisplay:10.37,2013-09-06 23:23:00,
2013-09-06 18:28:00,87.1,65.6,30.00,West,270,0.0,0.0,49,0.00,CLR,,0.01,42.0,WeatherDisplay:10.37,2013-09-06 23:28:00,
2013-09-06 18:33:00,86.4,67.2,30.00,West,270,0.0,0.0,53,0.00,CLR,,0.01,39.0,WeatherDisplay:10.37,2013-09-06 23:33:00,
2013-09-06 18:38:00,86.1,68.0,30.00,West,270,0.0,0.0,55,0.00,CLR,,0.01,47.0,WeatherDisplay:10.37,2013-09-06 23:38:00,
2013-09-06 18:43:00,85.2,67.2,30.00,West,270,0.0,0.0,55,0.00,CLR,,0.01,35.0,WeatherDisplay:10.37,2013-09-06 23:43:00,
2013-09-06 18:48:00,84.6,68.7,30.00,West,270,0.0,0.0,59,0.00,CLR,,0.01,35.0,WeatherDisplay:10.37,2013-09-06 23:48:00,
2013-09-06 18:53:00,84.1,68.7,30.00,West,270,0.0,0.0,60,0.00,CLR,,0.01,44.0,WeatherDisplay:10.37,2013-09-06 23:53:00,
2013-09-06 18:58:00,83.9,68.0,30.00,West,270,0.0,0.0,59,0.00,CLR,,0.01,39.0,WeatherDisplay:10.37,2013-09-06 23:58:00,
2013-09-06 19:03:00,82.7,67.9,30.00,West,270,0.0,0.0,61,0.00,CLR,,0.01,33.0,WeatherDisplay:10.37,2013-09-07 00:03:00,
2013-09-06 19:08:00,81.7,68.8,30.00,West,270,0.0,0.0,65,0.00,CLR,,0.01,21.0,WeatherDisplay:10.37,2013-09-07 00:08:00,
2013-09-06 19:13:00,81.1,67.8,30.00,West,270,0.0,0.0,64,0.00,CLR,,0.01,18.0,WeatherDisplay:10.37,2013-09-07 00:13:00,
2013-09-06 19:18:00,80.6,68.2,30.00,West,270,0.0,0.0,66,0.00,CLR,,0.01,14.0,WeatherDisplay:10.37,2013-09-07 00:18:00,
2013-09-06 19:23:00,80.0,68.5,30.00,West,270,0.0,0.0,68,0.00,CLR,,0.01,11.0,WeatherDisplay:10.37,2013-09-07 00:23:00,
2013-09-06 19:28:00,79.2,67.3,30.00,West,270,0.0,0.0,67,0.00,CLR,,0.01,7.0,WeatherDisplay:10.37,2013-09-07 00:28:00,
2013-09-06 19:33:00,78.7,68.1,30.00,West,270,0.0,0.0,70,0.00,CLR,,0.01,0.0,WeatherDisplay:10.37,2013-09-07 00:33:00,
2013-09-06 19:38:00,77.7,66.3,30.00,West,270,0.0,1.0,68,0.00,CLR,,0.01,0.0,WeatherDisplay:10.37,2013-09-07 00:38:00,
2013-09-06 19:43:00,77.4,65.6,30.00,West,270,0.0,0.0,67,0.00,CLR,,0.01,0.0,WeatherDisplay:10.37,2013-09-07 00:43:00,
2013-09-06 19:48:00,77.3,65.1,30.00,West,270,0.0,0.0,66,0.00,CLR,,0.01,0.0,WeatherDisplay:10.37,2013-09-07 00:48:00,
2013-09-06 19:53:00,76.8,65.0,30.00,West,270,0.0,0.0,67,0.00,CLR,,0.01,0.0,WeatherDisplay:10.37,2013-09-07 00:53:00,
2013-09-06 19:58:00,76.2,64.9,30.00,West,270,0.0,0.0,68,0.00,CLR,,0.01,0.0,WeatherDisplay:10.37,2013-09-07 00:58:00,
2013-09-06 20:03:00,75.7,65.2,30.00,West,270,0.0,0.0,70,0.00,CLR,,0.01,0.0,WeatherDisplay:10.37,2013-09-07 01:03:00,
2013-09-06 20:08:00,75.1,65.1,30.00,West,270,0.0,0.0,71,0.00,CLR,,0.01,0.0,WeatherDisplay:10.37,2013-09-07 01:08:00,
2013-09-06 20:13:00,74.7,65.5,30.00,West,270,0.0,0.0,73,0.00,CLR,,0.01,0.0,WeatherDisplay:10.37,2013-09-07 01:13:00,
2013-09-06 20:18:00,74.6,65.4,30.00,West,270,0.0,0.0,73,0.00,CLR,,0.01,0.0,WeatherDisplay:10.37,2013-09-07 01:18:00,
2013-09-06 20:23:00,74.6,65.8,30.00,West,270,0.0,0.0,74,0.00,CLR,,0.01,0.0,WeatherDisplay:10.37,2013-09-07 01:23:00,
2013-09-06 20:28:00,74.3,65.1,30.00,West,270,0.0,0.0,73,0.00,CLR,,0.01,0.0,WeatherDisplay:10.37,2013-09-07 01:28:00,
2013-09-06 20:33:00,73.9,64.3,30.00,West,270,0.0,0.0,72,0.00,CLR,,0.01,0.0,WeatherDisplay:10.37,2013-09-07 01:33:00,
2013-09-06 20:38:00,73.7,64.1,30.00,West,270,1.0,3.0,72,0.00,CLR,,0.01,0.0,WeatherDisplay:10.37,2013-09-07 01:38:00,
2013-09-06 20:43:00,73.3,63.7,30.01,West,270,0.0,3.0,72,0.00,CLR,,0.01,0.0,WeatherDisplay:10.37,2013-09-07 01:43:00,
2013-09-06 20:48:00,72.6,63.4,30.01,West,270,0.0,0.0,73,0.00,CLR,,0.01,0.0,WeatherDisplay:10.37,2013-09-07 01:48:00,
2013-09-06 20:53:00,72.5,63.4,30.01,West,270,0.0,0.0,73,0.00,CLR,,0.01,0.0,WeatherDisplay:10.37,2013-09-07 01:53:00,
2013-09-06 20:58:00,72.5,63.4,30.01,West,270,0.0,0.0,73,0.00,CLR,,0.01,0.0,WeatherDisplay:10.37,2013-09-07 01:58:00,
2013-09-06 21:03:00,72.4,63.6,30.01,West,270,0.0,0.0,74,0.00,CLR,,0.01,0.0,WeatherDisplay:10.37,2013-09-07 02:03:00,
2013-09-06 21:08:00,72.2,63.1,30.01,West,270,0.0,0.0,73,0.00,CLR,,0.01,0.0,WeatherDisplay:10.37,2013-09-07 02:08:00,
2013-09-06 21:13:00,72.0,63.3,30.01,West,270,0.0,0.0,74,0.00,CLR,,0.01,0.0,WeatherDisplay:10.37,2013-09-07 02:13:00,
2013-09-06 21:18:00,71.8,63.1,30.01,West,270,0.0,0.0,74,0.00,CLR,,0.01,0.0,WeatherDisplay:10.37,2013-09-07 02:18:00,
2013-09-06 21:23:00,71.8,62.7,30.01,West,270,0.0,1.0,73,0.00,CLR,,0.01,0.0,WeatherDisplay:10.37,2013-09-07 02:23:00,
2013-09-06 21:28:00,71.5,62.8,30.01,West,270,0.0,0.0,74,0.00,CLR,,0.01,0.0,WeatherDisplay:10.37,2013-09-07 02:28:00,
2013-09-06 21:33:00,71.1,62.4,30.01,West,270,0.0,0.0,74,0.00,CLR,,0.01,0.0,WeatherDisplay:10.37,2013-09-07 02:33:00,
2013-09-06 21:38:00,70.6,62.3,30.01,West,270,0.0,0.0,75,0.00,CLR,,0.01,0.0,WeatherDisplay:10.37,2013-09-07 02:38:00,
2013-09-06 21:43:00,70.2,62.6,30.01,West,270,0.0,0.0,77,0.00,CLR,,0.01,0.0,WeatherDisplay:10.37,2013-09-07 02:43:00,
2013-09-06 21:48:00,69.9,63.1,30.01,West,270,0.0,0.0,79,0.00,CLR,,0.01,0.0,WeatherDisplay:10.37,2013-09-07 02:48:00,
2013-09-06 21:53:00,69.5,62.7,30.01,West,270,0.0,0.0,79,0.00,CLR,,0.01,0.0,WeatherDisplay:10.37,2013-09-07 02:53:00,
2013-09-06 21:58:00,69.3,62.9,30.01,West,270,0.0,0.0,80,0.00,CLR,,0.01,0.0,WeatherDisplay:10.37,2013-09-07 02:58:00,
2013-09-06 22:03:00,69.3,62.9,30.01,West,270,0.0,0.0,80,0.00,CLR,,0.01,0.0,WeatherDisplay:10.37,2013-09-07 03:03:00,
2013-09-06 22:08:00,69.4,63.0,30.01,West,270,0.0,0.0,80,0.00,CLR,,0.01,0.0,WeatherDisplay:10.37,2013-09-07 03:08:00,
2013-09-06 22:13:00,69.2,62.8,30.01,West,270,0.0,0.0,80,0.00,CLR,,0.01,0.0,WeatherDisplay:10.37,2013-09-07 03:13:00,
2013-09-06 22:18:00,69.1,63.0,30.02,West,270,0.0,0.0,81,0.00,CLR,,0.01,0.0,WeatherDisplay:10.37,2013-09-07 03:18:00,
2013-09-06 22:23:00,69.2,62.8,30.02,West,270,0.0,0.0,80,0.00,CLR,,0.01,0.0,WeatherDisplay:10.37,2013-09-07 03:23:00,
2013-09-06 22:28:00,69.2,62.8,30.02,West,270,0.0,0.0,80,0.00,CLR,,0.01,0.0,WeatherDisplay:10.37,2013-09-07 03:28:00,
2013-09-06 22:33:00,68.9,62.8,30.02,West,270,0.0,0.0,81,0.00,CLR,,0.01,0.0,WeatherDisplay:10.37,2013-09-07 03:33:00,
2013-09-06 22:38:00,68.8,62.7,30.02,West,270,0.0,3.0,81,0.00,CLR,,0.01,0.0,WeatherDisplay:10.37,2013-09-07 03:38:00,
2013-09-06 22:43:00,69.0,62.6,30.02,West,270,0.0,0.0,80,0.00,CLR,,0.01,0.0,WeatherDisplay:10.37,2013-09-07 03:43:00,
2013-09-06 22:48:00,68.9,62.5,30.02,West,270,0.0,0.0,80,0.00,CLR,,0.01,0.0,WeatherDisplay:10.37,2013-09-07 03:48:00,
2013-09-06 22:53:00,68.8,62.7,30.02,West,270,0.0,0.0,81,0.00,CLR,,0.01,0.0,WeatherDisplay:10.37,2013-09-07 03:53:00,
2013-09-06 22:58:00,68.6,62.5,30.02,West,270,0.0,0.0,81,0.00,CLR,,0.01,0.0,WeatherDisplay:10.37,2013-09-07 03:58:00,
2013-09-06 23:03:00,68.3,62.6,30.02,West,270,0.0,0.0,82,0.00,CLR,,0.01,0.0,WeatherDisplay:10.37,2013-09-07 04:03:00,
2013-09-06 23:08:00,68.3,62.9,30.02,West,270,0.0,0.0,83,0.00,CLR,,0.01,0.0,WeatherDisplay:10.37,2013-09-07 04:08:00,
2013-09-06 23:13:00,68.1,62.7,30.02,West,270,0.0,0.0,83,0.00,CLR,,0.01,0.0,WeatherDisplay:10.37,2013-09-07 04:13:00,
2013-09-06 23:18:00,68.0,62.6,30.02,West,270,0.0,0.0,83,0.00,CLR,,0.01,0.0,WeatherDisplay:10.37,2013-09-07 04:18:00,
2013-09-06 23:23:00,68.2,62.5,30.02,West,270,0.0,0.0,82,0.00,CLR,,0.01,0.0,WeatherDisplay:10.37,2013-09-07 04:23:00,
2013-09-06 23:28:00,68.2,62.8,30.02,West,270,0.0,0.0,83,0.00,CLR,,0.01,0.0,WeatherDisplay:10.37,2013-09-07 04:28:00,
2013-09-06 23:33:00,68.0,62.6,30.02,West,270,0.0,0.0,83,0.00,CLR,,0.01,0.0,WeatherDisplay:10.37,2013-09-07 04:33:00,
2013-09-06 23:38:00,67.8,62.1,30.02,West,270,0.0,0.0,82,0.00,CLR,,0.01,0.0,WeatherDisplay:10.37,2013-09-07 04:38:00,
2013-09-06 23:43:00,67.4,62.1,30.02,West,270,0.0,0.0,83,0.00,CLR,,0.01,0.0,WeatherDisplay:10.37,2013-09-07 04:43:00,
2013-09-06 23:48:00,67.3,62.3,30.02,West,270,0.0,0.0,84,0.00,CLR,,0.01,0.0,WeatherDisplay:10.37,2013-09-07 04:48:00,
2013-09-06 23:53:00,67.2,62.2,30.02,West,270,0.0,0.0,84,0.00,CLR,,0.01,0.0,WeatherDisplay:10.37,2013-09-07 04:53:00,
2013-09-06 23:58:00,67.1,62.1,30.02,West,270,0.0,0.0,84,0.00,CLR,,0.01,0.0,WeatherDisplay:10.37,2013-09-07 04:58:00,